Tampa, Florida
Current Conditions -  °F | °C
As of 12:53 AM on Friday 31 Oct 2014 (Local Time) from KTPA Reporting Station
Broken Clouds Broken Clouds  
Wind Chill: 72°   Ceiling: 8500
Heat Index: 72°   Visibility: 10mi
Dew Point: 67°   Wind: 6mph
Humidity: 84%   Direction: 10°N
Pressure: 29.9"   Gusts: NA
Location:  27.95°N, 82.46°W
Report Text: KTPA 310453Z 01005KT 10SM FEW070 BKN085 BKN140 22/19 A2990 RMK AO2 SLP124 T02220194 402780211
Loading
Personal Weather Stations






























Interactive Weather Map
Tropical Storm Tracking
New forecast layout! Learn more

10-Day Weather Forecast

Advertisements
Track Severe Weather on mobile